Pattonville Airfield

METAR EDTY TAF EDTY
-2 °C
°C
-
°C
25m
Age
00:14:55
LT
23:14
UTC
0 ft

1,000

2,000

3,000

4,000

5,000

FEW 3,300
VFR
<?= Yii::t('app', 'Wind direction') ?> <?= Yii::t('app', 'of'); ?>
080°
07:44
Sunrise
80%
Humidity
Wind shear
Closed/Snow
RWY visual range
RWY condition
Vert. visibility
Min. visibility
CAVOK
Trend
Correction
Special report
1036 hPa
QNH
METAR EDTY 062250Z AUTO 08008KT 9999 // FEW033/// M02/M05 Q1036
Few clouds
3 kt
3 kt
00:00
VFR
6 kt
01:00
VFR
6 kt
02:00
VFR
6 kt
03:00
VFR
6 kt
10 km+
Visibility
None
Ceiling
8 kt
Wind
metar-taf.com/EDTQ

Metar-Taf.com

Visual decoder

We and third parties follow your internet behavior on our website with cookies. If you continue, we assume you agree with our cookie policy.